createdAt,value
2022-09-02T00:01:43.855Z,52.11
2022-09-02T00:04:14.391Z,52.00
2022-09-02T00:06:42.616Z,52.16
2022-09-02T00:09:12.078Z,52.19
2022-09-02T00:11:40.214Z,52.23
2022-09-02T00:14:11.090Z,52.42
2022-09-02T00:16:38.139Z,52.46
2022-09-02T00:19:05.299Z,52.49
2022-09-02T00:21:34.591Z,52.64
2022-09-02T00:24:05.639Z,52.38
2022-09-02T00:26:32.995Z,52.68
2022-09-02T00:28:59.559Z,52.76
2022-09-02T00:31:27.600Z,52.78
2022-09-02T00:33:54.745Z,52.95
2022-09-02T00:36:21.827Z,52.91
2022-09-02T00:38:48.906Z,52.90
2022-09-02T00:41:15.757Z,53.08
2022-09-02T00:43:58.467Z,53.14
2022-09-02T00:46:27.445Z,53.25
2022-09-02T00:49:17.234Z,53.50
2022-09-02T00:51:51.829Z,53.70
2022-09-02T00:54:22.972Z,53.78
2022-09-02T00:56:53.826Z,53.73
2022-09-02T00:59:49.107Z,54.01
2022-09-02T01:02:17.217Z,54.06
2022-09-02T01:04:46.719Z,54.09
2022-09-02T01:07:13.340Z,54.42
2022-09-02T01:09:40.833Z,54.53
2022-09-02T01:12:08.779Z,54.53
2022-09-02T01:14:35.630Z,54.66
2022-09-02T01:17:03.429Z,54.82
2022-09-02T01:19:34.984Z,54.83
2022-09-02T01:22:01.890Z,54.76
2022-09-02T01:24:31.240Z,54.96
2022-09-02T01:26:59.068Z,54.88
2022-09-02T01:29:27.074Z,54.99
2022-09-02T01:31:54.235Z,54.97
2022-09-02T01:34:20.933Z,54.94
2022-09-02T01:36:47.492Z,55.30
2022-09-02T01:39:14.444Z,55.21
2022-09-02T01:41:42.015Z,55.44
2022-09-02T01:44:09.259Z,55.77
2022-09-02T01:46:36.676Z,55.90
2022-09-02T01:49:04.377Z,55.56
2022-09-02T01:51:31.531Z,55.58
2022-09-02T01:53:58.053Z,55.82
2022-09-02T01:56:24.676Z,56.03
2022-09-02T01:58:51.493Z,56.12
2022-09-02T02:01:19.474Z,56.37
2022-09-02T02:03:46.050Z,56.19
2022-09-02T02:06:16.452Z,56.47
2022-09-02T02:08:43.845Z,56.51
2022-09-02T02:11:11.022Z,56.67
2022-09-02T02:13:38.302Z,56.52
2022-09-02T02:16:05.214Z,56.71
2022-09-02T02:18:31.744Z,56.70
2022-09-02T02:20:58.350Z,56.65
2022-09-02T02:23:25.693Z,56.71
2022-09-02T02:25:52.303Z,56.60
2022-09-02T02:28:18.875Z,56.62
2022-09-02T02:30:45.447Z,56.63
2022-09-02T02:33:12.074Z,56.48
2022-09-02T02:35:38.689Z,56.48
2022-09-02T02:38:05.346Z,56.72
2022-09-02T02:40:32.969Z,56.69
2022-09-02T02:42:59.534Z,56.59
2022-09-02T02:45:26.683Z,56.47
2022-09-02T02:47:53.646Z,56.76
2022-09-02T02:50:22.206Z,56.66
2022-09-02T02:52:49.192Z,56.56
2022-09-02T02:55:16.725Z,56.67
2022-09-02T02:57:45.051Z,56.78
2022-09-02T03:00:15.515Z,56.77
2022-09-02T03:02:42.402Z,56.87
2022-09-02T03:05:10.538Z,56.77
2022-09-02T03:07:37.327Z,56.91
2022-09-02T03:10:08.354Z,56.90
2022-09-02T03:12:36.399Z,56.99
2022-09-02T03:15:03.840Z,57.20
2022-09-02T03:17:30.688Z,57.07
2022-09-02T03:19:59.444Z,57.10
2022-09-02T03:22:27.378Z,57.16
2022-09-02T03:24:53.947Z,57.04
2022-09-02T03:27:20.446Z,57.17
2022-09-02T03:29:46.980Z,57.34
2022-09-02T03:32:14.868Z,57.42
2022-09-02T03:34:42.367Z,57.30
2022-09-02T03:37:09.206Z,57.42
2022-09-02T03:39:37.465Z,57.53
2022-09-02T03:42:05.665Z,57.57
2022-09-02T03:44:34.365Z,57.73
2022-09-02T03:47:01.311Z,57.63
2022-09-02T03:49:28.386Z,57.74
2022-09-02T03:51:55.022Z,57.90
2022-09-02T03:54:21.661Z,58.11
2022-09-02T03:56:51.130Z,58.29
2022-09-02T03:59:18.916Z,58.40
2022-09-02T04:01:46.120Z,58.57
2022-09-02T04:04:12.911Z,58.64
2022-09-02T04:06:40.237Z,58.62
2022-09-02T04:09:07.097Z,58.60
2022-09-02T04:11:33.719Z,58.78
2022-09-02T04:14:00.377Z,58.97
2022-09-02T04:16:29.168Z,58.98
2022-09-02T04:18:58.704Z,58.74
2022-09-02T04:21:26.109Z,58.81
2022-09-02T04:23:53.276Z,58.86
2022-09-02T04:26:20.887Z,58.86
2022-09-02T04:28:48.776Z,58.89
2022-09-02T04:31:20.147Z,58.97
2022-09-02T04:33:48.484Z,58.76
2022-09-02T04:36:16.883Z,58.79
2022-09-02T04:38:43.937Z,59.07
2022-09-02T04:41:17.015Z,58.81
2022-09-02T04:43:43.917Z,59.33
2022-09-02T04:46:15.879Z,59.78
2022-09-02T04:48:43.391Z,59.57
2022-09-02T04:51:13.662Z,60.54
2022-09-02T04:53:41.029Z,59.83
2022-09-02T04:56:10.149Z,60.71
2022-09-02T04:58:37.885Z,60.37
2022-09-02T05:01:08.222Z,60.80
2022-09-02T05:03:34.905Z,61.17
2022-09-02T05:06:04.243Z,61.06
2022-09-02T05:08:31.050Z,60.53
2022-09-02T05:10:58.178Z,60.75
2022-09-02T05:13:26.118Z,61.44
2022-09-02T05:15:52.954Z,61.09
2022-09-02T05:18:19.550Z,61.35
2022-09-02T05:20:46.176Z,60.08
2022-09-02T05:23:13.854Z,60.47
2022-09-02T05:25:40.854Z,59.64
2022-09-02T05:28:11.303Z,59.63
2022-09-02T05:30:40.030Z,59.02
2022-09-02T05:33:07.629Z,58.88
2022-09-02T05:35:45.470Z,58.51
2022-09-02T05:38:12.967Z,58.32
2022-09-02T05:40:39.622Z,58.67
2022-09-02T05:43:06.949Z,58.52
2022-09-02T05:45:34.711Z,58.65
2022-09-02T05:48:21.144Z,58.39
2022-09-02T05:50:50.153Z,57.96
2022-09-02T05:53:16.846Z,58.38
2022-09-02T05:55:46.519Z,57.88
2022-09-02T05:58:13.428Z,57.92
2022-09-02T06:00:40.334Z,57.36
2022-09-02T06:03:07.103Z,57.07
2022-09-02T06:05:33.966Z,57.36
2022-09-02T06:08:00.546Z,56.90
2022-09-02T06:10:27.197Z,57.01
2022-09-02T06:12:53.798Z,56.64
2022-09-02T06:15:20.462Z,56.29
2022-09-02T06:17:47.079Z,56.46
2022-09-02T06:20:13.962Z,56.45
2022-09-02T06:22:41.021Z,56.30
2022-09-02T06:25:07.856Z,55.98
2022-09-02T06:27:34.390Z,55.85
2022-09-02T06:33:39.702Z,55.65
2022-09-02T06:36:08.361Z,55.29
2022-09-02T06:38:45.188Z,55.60
2022-09-02T06:41:13.292Z,55.68
2022-09-02T06:43:42.863Z,55.41
2022-09-02T06:46:18.630Z,55.01
2022-09-02T06:48:45.493Z,54.68
2022-09-02T06:51:23.805Z,54.52
2022-09-02T06:53:50.669Z,54.35
2022-09-02T06:56:18.071Z,54.61
2022-09-02T06:58:44.976Z,54.59
2022-09-02T07:01:19.080Z,54.48
2022-09-02T07:04:04.454Z,54.75
2022-09-02T07:06:36.628Z,55.13
2022-09-02T07:09:05.559Z,55.19
2022-09-02T07:11:32.668Z,55.42
2022-09-02T07:14:02.700Z,55.50
2022-09-02T07:16:31.547Z,55.55
2022-09-02T07:19:01.337Z,55.69
2022-09-02T07:21:29.852Z,54.85
2022-09-02T07:24:00.333Z,55.19
2022-09-02T07:26:27.859Z,54.88
2022-09-02T07:28:54.718Z,54.66
2022-09-02T07:31:21.279Z,54.67
2022-09-02T07:33:49.856Z,54.21
2022-09-02T07:36:16.968Z,54.50
2022-09-02T07:38:43.455Z,54.05
2022-09-02T07:41:10.821Z,53.81
2022-09-02T07:43:38.158Z,53.63
2022-09-02T07:46:05.959Z,53.55
2022-09-02T07:48:34.185Z,53.84
2022-09-02T07:51:01.160Z,53.10
2022-09-02T07:53:28.442Z,51.70
2022-09-02T07:55:55.013Z,52.11
2022-09-02T07:58:22.574Z,51.55
2022-09-02T08:00:50.144Z,52.01
2022-09-02T08:03:16.914Z,51.99
2022-09-02T08:05:45.177Z,52.68
2022-09-02T08:08:11.742Z,52.35
2022-09-02T08:10:38.642Z,51.59
2022-09-02T08:13:06.852Z,51.61
2022-09-02T08:15:36.012Z,50.98
2022-09-02T08:18:03.373Z,49.45
2022-09-02T08:20:32.695Z,49.63
2022-09-02T08:23:10.763Z,49.20
2022-09-02T08:25:40.930Z,48.97
2022-09-02T08:28:07.496Z,49.40
2022-09-02T08:30:34.332Z,49.34
2022-09-02T08:33:00.994Z,47.42
2022-09-02T08:35:27.628Z,47.48
2022-09-02T08:37:54.219Z,47.86
2022-09-02T08:40:24.943Z,47.21
2022-09-02T08:42:53.478Z,46.10
2022-09-02T08:45:37.830Z,46.78
2022-09-02T08:48:12.742Z,45.66
2022-09-02T08:50:44.618Z,45.08
2022-09-02T08:53:28.085Z,44.74
2022-09-02T08:55:58.167Z,44.46
2022-09-02T08:58:28.893Z,44.18
2022-09-02T09:01:15.397Z,45.47
2022-09-02T09:04:04.240Z,45.71
2022-09-02T09:07:00.720Z,44.12
2022-09-02T09:09:51.139Z,43.69
2022-09-02T09:12:37.668Z,43.00
2022-09-02T09:15:33.880Z,43.44
2022-09-02T09:18:07.276Z,43.64
2022-09-02T09:20:38.559Z,43.48
2022-09-02T09:23:21.853Z,42.57
2022-09-02T09:25:51.004Z,42.07
2022-09-02T09:28:17.526Z,41.19
2022-09-02T09:30:46.114Z,40.98
2022-09-02T09:33:18.191Z,40.62
2022-09-02T09:35:53.799Z,41.04
2022-09-02T09:38:33.613Z,40.88
2022-09-02T09:41:18.006Z,41.03
2022-09-02T09:43:44.794Z,40.89
2022-09-02T09:46:32.409Z,39.25
2022-09-02T09:48:59.130Z,40.89
2022-09-02T09:51:26.189Z,40.29
2022-09-02T09:53:53.039Z,38.87
2022-09-02T09:56:26.715Z,37.50
2022-09-02T09:58:53.794Z,37.79
2022-09-02T10:01:25.113Z,37.52
2022-09-02T10:06:59.872Z,36.45
2022-09-02T10:09:45.178Z,37.33
2022-09-02T10:12:13.559Z,37.59
2022-09-02T10:14:48.768Z,37.11
2022-09-02T10:17:48.752Z,35.89
2022-09-02T10:20:48.399Z,35.47
2022-09-02T10:23:32.744Z,35.76
2022-09-02T10:25:59.284Z,35.92
2022-09-02T10:28:51.930Z,36.25
2022-09-02T10:31:19.678Z,35.73
2022-09-02T10:33:52.057Z,35.59
2022-09-02T10:37:03.710Z,34.82
2022-09-02T10:39:51.977Z,35.06
2022-09-02T10:42:34.647Z,35.08
2022-09-02T10:45:18.085Z,34.66
2022-09-02T10:48:05.815Z,34.49
2022-09-02T10:50:45.553Z,36.44
2022-09-02T10:53:38.963Z,35.65
2022-09-02T10:56:08.307Z,35.30
2022-09-02T11:02:02.337Z,35.11
2022-09-02T11:04:40.595Z,34.99
2022-09-02T11:07:11.009Z,35.44
2022-09-02T11:09:44.260Z,34.17
2022-09-02T11:12:27.822Z,33.81
2022-09-02T11:15:17.884Z,35.04
2022-09-02T11:17:59.929Z,35.93
2022-09-02T11:20:35.498Z,34.83
2022-09-02T11:23:14.127Z,34.84
2022-09-02T11:25:55.695Z,36.79
2022-09-02T11:28:46.592Z,35.44
2022-09-02T11:31:24.697Z,35.37
2022-09-02T11:34:12.514Z,33.21
2022-09-02T11:36:40.957Z,32.76
2022-09-02T11:39:12.681Z,32.19
2022-09-02T11:41:45.214Z,32.07
2022-09-02T11:44:19.990Z,31.70
2022-09-02T11:46:59.557Z,32.75
2022-09-02T11:49:57.438Z,33.86
2022-09-02T11:52:33.312Z,33.81
2022-09-02T11:55:17.109Z,32.74
2022-09-02T11:57:52.506Z,33.37
2022-09-02T12:00:32.881Z,33.39
2022-09-02T12:03:16.684Z,33.95
2022-09-02T12:06:08.133Z,32.18
2022-09-02T12:08:36.991Z,31.18
2022-09-02T12:11:06.884Z,31.28
2022-09-02T12:13:38.444Z,30.87
2022-09-02T12:16:21.367Z,32.66
2022-09-02T12:19:11.740Z,32.55
2022-09-02T12:22:13.456Z,32.23
2022-09-02T12:24:53.934Z,31.41
2022-09-02T12:27:28.953Z,31.82
2022-09-02T12:29:56.882Z,32.00
2022-09-02T12:32:46.128Z,32.18
2022-09-02T12:35:39.848Z,31.47
2022-09-02T12:38:09.724Z,31.75
2022-09-02T12:40:49.196Z,31.82
2022-09-02T12:43:25.860Z,30.78
2022-09-02T12:45:57.607Z,30.93
2022-09-02T12:48:38.574Z,31.21
2022-09-02T12:51:05.830Z,31.34
2022-09-02T12:53:46.625Z,30.88
2022-09-02T12:56:13.243Z,30.78
2022-09-02T12:58:46.180Z,31.29
2022-09-02T13:01:18.642Z,31.89
2022-09-02T13:03:50.725Z,32.72
2022-09-02T13:06:54.899Z,31.67
2022-09-02T13:09:43.542Z,31.77
2022-09-02T13:12:31.244Z,32.08
2022-09-02T13:15:27.821Z,30.30
2022-09-02T13:18:18.062Z,30.63
2022-09-02T13:21:05.036Z,31.58
2022-09-02T13:24:02.496Z,31.89
2022-09-02T13:26:59.238Z,31.88
2022-09-02T13:29:45.710Z,31.56
2022-09-02T13:32:22.181Z,31.24
2022-09-02T13:34:51.409Z,30.72
2022-09-02T13:37:36.815Z,30.81
2022-09-02T13:40:20.214Z,31.65
2022-09-02T13:43:13.988Z,32.05
2022-09-02T13:45:41.392Z,32.21
2022-09-02T13:48:11.663Z,31.33
2022-09-02T13:50:43.696Z,32.05
2022-09-02T13:56:02.403Z,30.39
2022-09-02T13:58:29.028Z,30.59
2022-09-02T14:01:01.903Z,31.72
2022-09-02T14:03:32.943Z,31.78
2022-09-02T14:06:00.888Z,33.11
2022-09-02T14:08:29.241Z,32.63
2022-09-02T14:10:56.813Z,32.99
2022-09-02T14:13:23.754Z,33.54
2022-09-02T14:15:50.498Z,33.34
2022-09-02T14:18:20.926Z,33.46
2022-09-02T14:21:18.558Z,33.85
2022-09-02T14:23:52.356Z,34.44
2022-09-02T14:26:37.418Z,34.11
2022-09-02T14:29:08.168Z,34.23
2022-09-02T14:31:35.469Z,35.37
2022-09-02T14:34:02.241Z,35.33
2022-09-02T14:36:32.871Z,35.46
2022-09-02T14:39:19.054Z,33.96
2022-09-02T14:41:54.653Z,32.50
2022-09-02T14:44:34.151Z,30.92
2022-09-02T14:47:05.217Z,31.78
2022-09-02T14:49:41.961Z,34.04
2022-09-02T14:52:31.025Z,34.68
2022-09-02T14:54:58.160Z,34.66
2022-09-02T14:57:28.514Z,34.53
2022-09-02T15:00:01.669Z,34.31
2022-09-02T15:02:28.153Z,33.21
2022-09-02T15:04:59.975Z,32.29
2022-09-02T15:07:27.342Z,32.12
2022-09-02T15:09:54.147Z,31.23
2022-09-02T15:12:25.809Z,30.82
2022-09-02T15:14:53.120Z,32.15
2022-09-02T15:17:20.756Z,31.08
2022-09-02T15:19:47.753Z,30.74
2022-09-02T15:22:15.017Z,31.35
2022-09-02T15:24:43.403Z,30.72
2022-09-02T15:27:11.138Z,30.76
2022-09-02T15:29:37.750Z,30.67
2022-09-02T15:32:04.608Z,30.63
2022-09-02T15:34:32.065Z,31.44
2022-09-02T15:36:58.901Z,31.82
2022-09-02T15:39:26.122Z,31.70
2022-09-02T15:41:55.461Z,31.00
2022-09-02T15:44:26.039Z,30.83
2022-09-02T15:46:53.782Z,29.88
2022-09-02T15:49:21.535Z,30.77
2022-09-02T15:51:51.627Z,30.49
2022-09-02T15:54:24.009Z,30.00
2022-09-02T15:56:55.839Z,29.49
2022-09-02T15:59:30.351Z,29.82
2022-09-02T16:01:58.821Z,31.12
2022-09-02T16:04:27.478Z,30.66
2022-09-02T16:06:54.457Z,30.42
2022-09-02T16:09:21.114Z,30.60
2022-09-02T16:11:49.220Z,31.15
2022-09-02T16:14:20.855Z,31.01
2022-09-02T16:16:48.408Z,30.93
2022-09-02T16:19:15.030Z,31.10
2022-09-02T16:21:41.970Z,32.08
2022-09-02T16:24:09.023Z,32.46
2022-09-02T16:26:38.292Z,31.44
2022-09-02T16:29:07.807Z,31.18
2022-09-02T16:31:36.052Z,32.57
2022-09-02T16:34:05.907Z,31.70
2022-09-02T16:36:34.577Z,31.71
2022-09-02T16:39:03.417Z,32.37
2022-09-02T16:41:36.840Z,32.74
2022-09-02T16:44:06.728Z,32.49
2022-09-02T16:46:34.709Z,32.11
2022-09-02T16:49:01.465Z,32.85
2022-09-02T16:51:30.207Z,32.58
2022-09-02T16:53:59.484Z,33.19
2022-09-02T16:56:26.801Z,33.47
2022-09-02T16:58:54.428Z,34.38
2022-09-02T17:01:39.113Z,34.59
2022-09-02T17:04:38.357Z,35.13
2022-09-02T17:07:04.979Z,35.36
2022-09-02T17:09:31.783Z,34.87
2022-09-02T17:11:58.413Z,34.84
2022-09-02T17:14:27.426Z,35.23
2022-09-02T17:16:54.265Z,35.66
2022-09-02T17:19:21.980Z,35.33
2022-09-02T17:21:54.213Z,34.62
2022-09-02T17:24:24.047Z,35.32
2022-09-02T17:26:54.391Z,35.42
2022-09-02T17:32:09.592Z,35.68
2022-09-02T17:34:37.137Z,35.58
2022-09-02T17:37:04.731Z,35.72
2022-09-02T17:39:31.460Z,36.14
2022-09-02T17:41:58.071Z,36.28
2022-09-02T17:44:36.285Z,36.30
2022-09-02T17:47:14.261Z,36.86
2022-09-02T17:49:44.789Z,36.97
2022-09-02T17:52:14.484Z,37.04
2022-09-02T17:59:05.746Z,37.79
2022-09-02T18:01:37.659Z,38.02
2022-09-02T18:04:29.130Z,38.47
2022-09-02T18:07:09.872Z,38.66
2022-09-02T18:09:38.812Z,38.98
2022-09-02T18:12:07.531Z,39.38
2022-09-02T18:14:45.339Z,40.01
2022-09-02T18:17:35.297Z,40.21
2022-09-02T18:20:09.460Z,40.44
2022-09-02T18:23:06.456Z,40.76
2022-09-02T18:25:38.753Z,40.78
2022-09-02T18:28:26.332Z,40.88
2022-09-02T18:31:12.302Z,41.16
2022-09-02T18:33:41.887Z,41.45
2022-09-02T18:36:21.242Z,41.56
2022-09-02T18:39:18.691Z,41.70
2022-09-02T18:41:52.012Z,41.70
2022-09-02T18:44:38.407Z,41.95
2022-09-02T18:47:24.538Z,42.06
2022-09-02T18:49:54.226Z,42.15
2022-09-02T18:52:28.222Z,42.17
2022-09-02T18:55:00.594Z,42.39
2022-09-02T18:57:33.599Z,42.28
2022-09-02T19:00:09.375Z,42.76
2022-09-02T19:02:45.132Z,42.79
2022-09-02T19:05:20.519Z,42.71
2022-09-02T19:08:29.876Z,42.62
2022-09-02T19:11:01.655Z,42.93
2022-09-02T19:13:30.436Z,43.09
2022-09-02T19:16:04.341Z,43.19
2022-09-02T19:18:31.594Z,43.33
2022-09-02T19:20:58.752Z,43.37
2022-09-02T19:23:27.091Z,43.42
2022-09-02T19:25:53.934Z,43.60
2022-09-02T19:28:22.379Z,43.61
2022-09-02T19:30:53.334Z,43.74
2022-09-02T19:33:20.247Z,43.64
2022-09-02T19:35:49.642Z,43.92
2022-09-02T19:38:17.845Z,43.99
2022-09-02T19:40:45.725Z,43.93
2022-09-02T19:43:13.840Z,44.09
2022-09-02T19:45:40.632Z,44.33
2022-09-02T19:48:11.270Z,44.48
2022-09-02T19:50:43.727Z,44.47
2022-09-02T19:53:16.109Z,44.73
2022-09-02T19:55:42.900Z,44.73
2022-09-02T19:58:09.565Z,44.76
2022-09-02T20:00:36.390Z,44.73
2022-09-02T20:03:03.400Z,44.81
2022-09-02T20:05:30.022Z,44.87
2022-09-02T20:07:57.086Z,44.91
2022-09-02T20:10:27.885Z,44.94
2022-09-02T20:12:55.104Z,45.00
2022-09-02T20:15:21.869Z,45.00
2022-09-02T20:17:49.305Z,45.26
2022-09-02T20:20:21.757Z,45.22
2022-09-02T20:22:52.270Z,45.32
2022-09-02T20:25:23.206Z,45.26
2022-09-02T20:28:11.429Z,45.46
2022-09-02T20:30:42.850Z,45.36
2022-09-02T20:33:20.238Z,45.41
2022-09-02T20:35:47.078Z,45.64
2022-09-02T20:38:44.251Z,45.71
2022-09-02T20:41:29.692Z,45.61
2022-09-02T20:44:27.506Z,45.66
2022-09-02T20:47:26.654Z,45.63
2022-09-02T20:49:54.186Z,45.64
2022-09-02T20:52:20.642Z,45.69
2022-09-02T20:54:55.322Z,45.87
2022-09-02T20:57:30.842Z,45.82
2022-09-02T21:00:22.301Z,45.93
2022-09-02T21:02:55.957Z,46.13
2022-09-02T21:05:28.701Z,46.07
2022-09-02T21:08:06.319Z,46.28
2022-09-02T21:10:43.148Z,46.33
2022-09-02T21:13:24.828Z,46.40
2022-09-02T21:15:57.223Z,46.52
2022-09-02T21:18:35.994Z,46.60
2022-09-02T21:21:17.945Z,46.60
2022-09-02T21:24:02.999Z,46.72
2022-09-02T21:26:48.321Z,46.83
2022-09-02T21:29:29.049Z,46.81
2022-09-02T21:32:00.713Z,47.01
2022-09-02T21:34:45.937Z,47.12
2022-09-02T21:37:13.487Z,47.17
2022-09-02T21:39:47.455Z,47.01
2022-09-02T21:42:43.230Z,47.20
2022-09-02T21:45:29.277Z,47.13
2022-09-02T21:48:24.114Z,47.08
2022-09-02T21:51:01.076Z,47.08
2022-09-02T21:53:45.782Z,46.98
2022-09-02T21:56:32.387Z,47.13
2022-09-02T21:59:05.106Z,47.25
2022-09-02T22:01:49.434Z,47.33
2022-09-02T22:04:32.956Z,47.23
2022-09-02T22:07:14.002Z,47.38
2022-09-02T22:09:40.993Z,47.48
2022-09-02T22:12:11.459Z,47.67
2022-09-02T22:15:12.136Z,47.49
2022-09-02T22:17:51.707Z,47.77
2022-09-02T22:20:22.242Z,47.72
2022-09-02T22:22:57.509Z,47.75
2022-09-02T22:25:24.550Z,47.66
2022-09-02T22:28:14.562Z,47.97
2022-09-02T22:30:49.934Z,47.94
2022-09-02T22:33:19.582Z,48.08
2022-09-02T22:35:58.532Z,48.23
2022-09-02T22:38:35.323Z,48.24
2022-09-02T22:41:35.909Z,48.38
2022-09-02T22:44:22.510Z,48.64
2022-09-02T22:47:11.374Z,48.61
2022-09-02T22:50:02.353Z,48.66
2022-09-02T22:52:50.602Z,48.80
2022-09-02T22:55:39.401Z,48.84
2022-09-02T22:58:38.828Z,48.89
2022-09-02T23:01:13.072Z,49.22
2022-09-02T23:04:21.214Z,49.22
2022-09-02T23:06:47.867Z,49.32
2022-09-02T23:09:15.840Z,49.24
2022-09-02T23:11:51.041Z,49.31
2022-09-02T23:14:38.746Z,49.31
2022-09-02T23:17:43.918Z,49.74
2022-09-02T23:20:27.984Z,49.34
2022-09-02T23:23:03.454Z,49.49
2022-09-02T23:25:40.252Z,49.60
2022-09-02T23:28:17.548Z,49.81
2022-09-02T23:31:10.149Z,49.70
2022-09-02T23:33:50.972Z,50.07
2022-09-02T23:36:41.443Z,49.91
2022-09-02T23:39:33.030Z,50.07
2022-09-02T23:42:00.854Z,49.91
2022-09-02T23:44:31.456Z,50.08
2022-09-02T23:47:16.494Z,50.14
2022-09-02T23:49:57.744Z,50.31
2022-09-02T23:52:26.566Z,50.47
2022-09-02T23:55:07.962Z,50.61
